Toyama Airport, Japan

9:57 PM JST on February 10, 2016 (GMT +0900)
Toyama | | Change Station
CLOSE
Current Station
Airport
Location: Toyama Airport,
Elevation: 89 ft
Nearby Weather Stations

Elev 89 ft 36.65 °N, 137.19 °E | Updated 57 minutes ago

Scattered Clouds
Scattered Clouds
34 °F
Feels Like 31 °F
N
4
Wind Variable Wind from SSW

Today
High -- | Low -- °F
--% Chance of Precip.
Yesterday
High -- | Low -- °F
Precip. -- in
Pressure 30.39 in
Visibility 6.2 miles
Clouds Few 1000 ft
Scattered Clouds 3000 ft
Windchill 31 °F
Dew Point 28 °F
Humidity 81%
Rainfall 0.00 in
Snow Depth Not available.
6:45 AM 5:25 PM
Waxing Crescent, 5% visible
METAR RJNT 101200Z 20003KT 140V220 9999 FEW010 SCT030 01/M02 Q1029
Pressure 30.39 in
Visibility 6.2 miles
Clouds Few 1000 ft
Scattered Clouds 3000 ft
Windchill 31 °F
Dew Point 28 °F
Humidity 81%
Rainfall 0.00 in
Snow Depth Not available.
6:45 AM 5:25 PM
Waxing Crescent, 5% visible
METAR RJNT 101200Z 20003KT 140V220 9999 FEW010 SCT030 01/M02 Q1029

10-Day Weather Forecast

No radar image for this location.
×

Almanac

Astronomy

Feb. 10, 2016 Rise Set
Actual Time
Civil Twilight
Nautical Twilight
Astronomical Twilight
Moon
Length of Visible Light
Length of Day
Tomorrow will be .
, % of the Moon is Illuminated

Today's Extremes

Country Highs Country Lows

Community

WunderPhotos

Upload Photos

1,891,837 photos uploaded!

WunderBlog® & News

Nearby

Air Quality

  Air Quality AQ Index Pollutant
Not available.

Snow Depth

Station Depth Elevation

Earthquake Activity

City Distance Mag. Time & Date
Minimum magnitude displayed is 2.5.

Coastal Water Temperatures

Place Temperature

Stations

Nearby Weather Stations

Station Location Temp. Windchill Dew Point Humidity Wind Precip. Elev Updated Type